sensor_id;sensor_type;location;lat;lon;timestamp;pressure;altitude;pressure_sealevel;temperature;humidity
29907;BME280;16776;50.958;10.994;2023-05-08T00:02:03;99141.88;;;8.17;99.69
29907;BME280;16776;50.958;10.994;2023-05-08T00:04:30;99145.31;;;8.16;99.45
29907;BME280;16776;50.958;10.994;2023-05-08T00:06:57;99144.44;;;8.16;99.60
29907;BME280;16776;50.958;10.994;2023-05-08T00:09:24;99153.88;;;8.12;99.47
29907;BME280;16776;50.958;10.994;2023-05-08T00:11:51;99147.03;;;8.10;99.03
29907;BME280;16776;50.958;10.994;2023-05-08T00:14:17;99141.06;;;8.08;99.08
29907;BME280;16776;50.958;10.994;2023-05-08T00:16:44;99143.63;;;8.06;99.25
29907;BME280;16776;50.958;10.994;2023-05-08T00:19:10;99143.63;;;8.06;99.95
29907;BME280;16776;50.958;10.994;2023-05-08T00:21:37;99146.22;;;8.05;99.81
29907;BME280;16776;50.958;10.994;2023-05-08T00:24:06;99141.06;;;8.06;99.43
29907;BME280;16776;50.958;10.994;2023-05-08T00:26:32;99151.38;;;8.03;100.00
29907;BME280;16776;50.958;10.994;2023-05-08T00:28:59;99144.53;;;8.02;99.77
29907;BME280;16776;50.958;10.994;2023-05-08T00:31:25;99146.25;;;8.02;99.15
29907;BME280;16776;50.958;10.994;2023-05-08T00:33:52;99143.69;;;8.00;100.00
29907;BME280;16776;50.958;10.994;2023-05-08T00:36:18;99143.72;;;7.99;99.67
29907;BME280;16776;50.958;10.994;2023-05-08T00:38:45;99141.16;;;7.97;100.00
29907;BME280;16776;50.958;10.994;2023-05-08T00:41:13;99148.00;;;7.98;100.00
29907;BME280;16776;50.958;10.994;2023-05-08T00:43:40;99143.72;;;7.94;99.23
29907;BME280;16776;50.958;10.994;2023-05-08T00:46:06;99143.78;;;7.91;99.76
29907;BME280;16776;50.958;10.994;2023-05-08T00:48:35;99148.91;;;7.90;99.02
29907;BME280;16776;50.958;10.994;2023-05-08T00:51:03;99148.03;;;7.91;99.94
29907;BME280;16776;50.958;10.994;2023-05-08T00:53:32;99148.94;;;7.87;99.11
29907;BME280;16776;50.958;10.994;2023-05-08T00:55:59;99141.25;;;7.82;99.65
29907;BME280;16776;50.958;10.994;2023-05-08T00:58:27;99137.00;;;7.82;99.64
29907;BME280;16776;50.958;10.994;2023-05-08T01:00:55;99145.56;;;7.80;99.21
29907;BME280;16776;50.958;10.994;2023-05-08T01:03:22;99145.59;;;7.77;99.67
29907;BME280;16776;50.958;10.994;2023-05-08T01:05:49;99149.84;;;7.76;99.45
29907;BME280;16776;50.958;10.994;2023-05-08T01:08:18;99146.44;;;7.79;99.77
29907;BME280;16776;50.958;10.994;2023-05-08T01:10:50;99143.03;;;7.75;99.69
29907;BME280;16776;50.958;10.994;2023-05-08T01:13:29;99153.28;;;7.78;100.00
29907;BME280;16776;50.958;10.994;2023-05-08T01:16:08;99148.16;;;7.75;100.00
29907;BME280;16776;50.958;10.994;2023-05-08T01:18:43;99148.16;;;7.75;99.58
29907;BME280;16776;50.958;10.994;2023-05-08T01:21:18;99148.16;;;7.74;100.00
29907;BME280;16776;50.958;10.994;2023-05-08T01:24:18;99147.28;;;7.75;100.00
29907;BME280;16776;50.958;10.994;2023-05-08T01:32:55;99144.81;;;7.63;100.00
29907;BME280;16776;50.958;10.994;2023-05-08T01:35:26;99149.94;;;7.61;100.00
29907;BME280;16776;50.958;10.994;2023-05-08T01:37:59;99150.84;;;7.59;99.43
29907;BME280;16776;50.958;10.994;2023-05-08T01:40:34;99143.19;;;7.51;99.76
29907;BME280;16776;50.958;10.994;2023-05-08T01:43:11;99155.97;;;7.59;99.45
29907;BME280;16776;50.958;10.994;2023-05-08T01:45:40;99151.72;;;7.53;99.72
29907;BME280;16776;50.958;10.994;2023-05-08T01:48:16;99140.66;;;7.43;100.00
29907;BME280;16776;50.958;10.994;2023-05-08T01:50:46;99156.84;;;7.50;99.64
29907;BME280;16776;50.958;10.994;2023-05-08T01:53:20;99156.84;;;7.50;99.71
29907;BME280;16776;50.958;10.994;2023-05-08T01:55:49;99164.59;;;7.45;100.00
29907;BME280;16776;50.958;10.994;2023-05-08T01:58:19;99161.19;;;7.40;99.69
29907;BME280;16776;50.958;10.994;2023-05-08T02:00:47;99164.63;;;7.39;99.43
29907;BME280;16776;50.958;10.994;2023-05-08T02:03:19;99163.75;;;7.40;99.62
29907;BME280;16776;50.958;10.994;2023-05-08T02:05:47;99161.19;;;7.36;99.50
29907;BME280;16776;50.958;10.994;2023-05-08T02:08:14;99173.19;;;7.32;100.00
29907;BME280;16776;50.958;10.994;2023-05-08T02:10:45;99164.66;;;7.35;99.87
29907;BME280;16776;50.958;10.994;2023-05-08T02:13:17;99161.22;;;7.34;100.00
29907;BME280;16776;50.958;10.994;2023-05-08T02:15:45;99163.84;;;7.28;100.00
29907;BME280;16776;50.958;10.994;2023-05-08T02:20:42;99170.63;;;7.29;99.28
29907;BME280;16776;50.958;10.994;2023-05-08T02:23:10;99168.09;;;7.26;100.00
29907;BME280;16776;50.958;10.994;2023-05-08T02:25:38;99165.53;;;7.25;99.96
29907;BME280;16776;50.958;10.994;2023-05-08T02:28:05;99162.13;;;7.23;100.00
29907;BME280;16776;50.958;10.994;2023-05-08T02:30:33;99159.63;;;7.15;100.00
29907;BME280;16776;50.958;10.994;2023-05-08T02:33:00;99164.72;;;7.18;100.00
29907;BME280;16776;50.958;10.994;2023-05-08T02:35:29;99169.84;;;7.18;99.45
29907;BME280;16776;50.958;10.994;2023-05-08T02:37:59;99167.28;;;7.20;99.84
29907;BME280;16776;50.958;10.994;2023-05-08T02:40:28;99167.31;;;7.15;100.00
29907;BME280;16776;50.958;10.994;2023-05-08T02:42:56;99162.19;;;7.12;99.81
29907;BME280;16776;50.958;10.994;2023-05-08T02:45:25;99170.72;;;7.14;100.00
29907;BME280;16776;50.958;10.994;2023-05-08T02:48:00;99171.56;;;7.15;100.00
29907;BME280;16776;50.958;10.994;2023-05-08T02:50:36;99167.31;;;7.12;99.95
29907;BME280;16776;50.958;10.994;2023-05-08T02:53:08;99170.75;;;7.10;99.98
29907;BME280;16776;50.958;10.994;2023-05-08T02:55:41;99175.00;;;7.08;100.00
29907;BME280;16776;50.958;10.994;2023-05-08T02:58:11;99169.91;;;7.09;100.00
29907;BME280;16776;50.958;10.994;2023-05-08T03:00:46;99164.78;;;7.01;100.00
29907;BME280;16776;50.958;10.994;2023-05-08T03:03:21;99169.91;;;7.01;100.00
29907;BME280;16776;50.958;10.994;2023-05-08T03:05:50;99168.22;;;6.96;100.00
29907;BME280;16776;50.958;10.994;2023-05-08T03:08:24;99169.06;;;6.98;99.68
29907;BME280;16776;50.958;10.994;2023-05-08T03:10:54;99162.25;;;6.94;99.76
29907;BME280;16776;50.958;10.994;2023-05-08T03:13:22;99158.88;;;6.89;100.00
29907;BME280;16776;50.958;10.994;2023-05-08T03:15:53;99161.41;;;6.92;100.00
29907;BME280;16776;50.958;10.994;2023-05-08T03:18:22;99156.31;;;6.86;100.00
29907;BME280;16776;50.958;10.994;2023-05-08T03:20:54;99158.88;;;6.86;100.00
29907;BME280;16776;50.958;10.994;2023-05-08T03:23:26;99156.31;;;6.86;100.00
29907;BME280;16776;50.958;10.994;2023-05-08T03:25:54;99160.59;;;6.81;100.00
29907;BME280;16776;50.958;10.994;2023-05-08T03:28:23;99158.88;;;6.80;100.00
29907;BME280;16776;50.958;10.994;2023-05-08T03:30:50;99165.72;;;6.79;99.89
29907;BME280;16776;50.958;10.994;2023-05-08T03:33:18;99162.31;;;6.77;100.00
29907;BME280;16776;50.958;10.994;2023-05-08T03:35:47;99164.88;;;6.76;100.00
29907;BME280;16776;50.958;10.994;2023-05-08T03:38:14;99163.19;;;6.75;99.59
29907;BME280;16776;50.958;10.994;2023-05-08T03:40:43;99165.75;;;6.78;100.00
29907;BME280;16776;50.958;10.994;2023-05-08T03:43:11;99165.69;;;6.73;100.00
29907;BME280;16776;50.958;10.994;2023-05-08T03:45:38;99165.69;;;6.73;99.81
29907;BME280;16776;50.958;10.994;2023-05-08T03:48:07;99165.72;;;6.75;100.00
29907;BME280;16776;50.958;10.994;2023-05-08T03:50:35;99161.47;;;6.74;100.00
29907;BME280;16776;50.958;10.994;2023-05-08T03:53:03;99170.81;;;6.73;100.00
29907;BME280;16776;50.958;10.994;2023-05-08T03:55:30;99172.53;;;6.83;100.00
29907;BME280;16776;50.958;10.994;2023-05-08T03:58:00;99170.75;;;7.05;100.00
29907;BME280;16776;50.958;10.994;2023-05-08T04:00:42;99170.63;;;7.32;100.00
29907;BME280;16776;50.958;10.994;2023-05-08T04:03:20;99171.38;;;7.53;100.00
29907;BME280;16776;50.958;10.994;2023-05-08T04:05:50;99171.31;;;7.65;100.00
29907;BME280;16776;50.958;10.994;2023-05-08T04:08:22;99171.22;;;7.74;100.00
29907;BME280;16776;50.958;10.994;2023-05-08T04:10:58;99172.03;;;7.80;100.00
29907;BME280;16776;50.958;10.994;2023-05-08T04:13:34;99169.47;;;7.82;100.00
29907;BME280;16776;50.958;10.994;2023-05-08T04:16:04;99172.03;;;7.85;100.00
29907;BME280;16776;50.958;10.994;2023-05-08T04:18:33;99165.28;;;7.70;100.00
29907;BME280;16776;50.958;10.994;2023-05-08T04:21:02;99170.41;;;7.73;100.00
29907;BME280;16776;50.958;10.994;2023-05-08T04:23:32;99174.69;;;7.71;100.00
29907;BME280;16776;50.958;10.994;2023-05-08T04:26:01;99181.53;;;7.71;100.00
29907;BME280;16776;50.958;10.994;2023-05-08T04:28:30;99183.25;;;7.67;100.00
29907;BME280;16776;50.958;10.994;2023-05-08T04:30:57;99182.41;;;7.65;100.00
29907;BME280;16776;50.958;10.994;2023-05-08T04:33:24;99179.00;;;7.62;100.00
29907;BME280;16776;50.958;10.994;2023-05-08T04:35:50;99180.75;;;7.60;100.00
29907;BME280;16776;50.958;10.994;2023-05-08T04:38:17;99175.63;;;7.58;100.00
29907;BME280;16776;50.958;10.994;2023-05-08T04:40:44;99182.44;;;7.58;100.00
29907;BME280;16776;50.958;10.994;2023-05-08T04:43:10;99178.19;;;7.57;100.00
29907;BME280;16776;50.958;10.994;2023-05-08T04:45:38;99182.44;;;7.59;100.00
29907;BME280;16776;50.958;10.994;2023-05-08T04:48:05;99180.75;;;7.57;100.00
29907;BME280;16776;50.958;10.994;2023-05-08T04:50:31;99183.31;;;7.57;100.00
29907;BME280;16776;50.958;10.994;2023-05-08T04:52:58;99178.19;;;7.58;100.00
29907;BME280;16776;50.958;10.994;2023-05-08T04:55:25;99179.03;;;7.60;100.00
29907;BME280;16776;50.958;10.994;2023-05-08T04:57:51;99182.41;;;7.62;100.00
29907;BME280;16776;50.958;10.994;2023-05-08T05:00:21;99192.66;;;7.65;100.00
29907;BME280;16776;50.958;10.994;2023-05-08T05:02:49;99192.63;;;7.70;100.00
29907;BME280;16776;50.958;10.994;2023-05-08T05:05:16;99187.50;;;7.71;100.00
29907;BME280;16776;50.958;10.994;2023-05-08T05:07:42;99188.31;;;7.75;100.00
29907;BME280;16776;50.958;10.994;2023-05-08T05:10:09;99198.56;;;7.79;100.00
29907;BME280;16776;50.958;10.994;2023-05-08T05:12:36;99196.81;;;7.84;100.00
29907;BME280;16776;50.958;10.994;2023-05-08T05:15:03;99198.47;;;7.89;100.00
29907;BME280;16776;50.958;10.994;2023-05-08T05:17:30;99190.75;;;7.93;100.00
29907;BME280;16776;50.958;10.994;2023-05-08T05:19:58;99189.00;;;8.01;100.00
29907;BME280;16776;50.958;10.994;2023-05-08T05:22:25;99194.13;;;8.04;100.00
29907;BME280;16776;50.958;10.994;2023-05-08T05:24:52;99198.34;;;8.11;100.00
29907;BME280;16776;50.958;10.994;2023-05-08T05:27:19;99200.84;;;8.19;100.00
29907;BME280;16776;50.958;10.994;2023-05-08T05:29:46;99199.94;;;8.26;100.00
29907;BME280;16776;50.958;10.994;2023-05-08T05:32:12;99198.16;;;8.34;100.00
29907;BME280;16776;50.958;10.994;2023-05-08T05:34:39;99198.97;;;8.44;100.00
29907;BME280;16776;50.958;10.994;2023-05-08T05:37:09;99197.13;;;8.53;100.00
29907;BME280;16776;50.958;10.994;2023-05-08T05:39:36;99191.94;;;8.59;100.00
29907;BME280;16776;50.958;10.994;2023-05-08T05:42:03;99193.59;;;8.68;100.00
29907;BME280;16776;50.958;10.994;2023-05-08T05:44:29;99199.50;;;8.76;100.00
29907;BME280;16776;50.958;10.994;2023-05-08T05:46:56;99206.25;;;8.83;100.00
29907;BME280;16776;50.958;10.994;2023-05-08T05:49:22;99211.31;;;8.91;100.00
29907;BME280;16776;50.958;10.994;2023-05-08T05:51:49;99202.66;;;8.99;100.00
29907;BME280;16776;50.958;10.994;2023-05-08T05:54:17;99199.09;;;9.10;100.00
29907;BME280;16776;50.958;10.994;2023-05-08T05:56:43;99199.88;;;9.16;100.00
29907;BME280;16776;50.958;10.994;2023-05-08T05:59:10;99207.50;;;9.25;100.00
29907;BME280;16776;50.958;10.994;2023-05-08T06:01:36;99202.28;;;9.30;100.00
29907;BME280;16776;50.958;10.994;2023-05-08T06:04:03;99201.34;;;9.35;100.00
29907;BME280;16776;50.958;10.994;2023-05-08T06:06:30;99198.78;;;9.40;100.00
29907;BME280;16776;50.958;10.994;2023-05-08T06:08:57;99204.69;;;9.47;100.00
29907;BME280;16776;50.958;10.994;2023-05-08T06:11:25;99201.97;;;9.57;100.00
29907;BME280;16776;50.958;10.994;2023-05-08T06:13:51;99202.69;;;9.67;100.00
29907;BME280;16776;50.958;10.994;2023-05-08T06:16:21;99197.38;;;9.79;100.00
29907;BME280;16776;50.958;10.994;2023-05-08T06:18:49;99198.88;;;9.92;100.00
29907;BME280;16776;50.958;10.994;2023-05-08T06:21:15;99197.81;;;10.07;100.00
29907;BME280;16776;50.958;10.994;2023-05-08T06:23:42;99195.88;;;10.21;100.00
29907;BME280;16776;50.958;10.994;2023-05-08T06:26:09;99203.31;;;10.38;100.00
29907;BME280;16776;50.958;10.994;2023-05-08T06:28:36;99202.25;;;10.52;100.00
29907;BME280;16776;50.958;10.994;2023-05-08T06:31:03;99196.00;;;10.66;100.00
29907;BME280;16776;50.958;10.994;2023-05-08T06:33:30;99197.47;;;10.79;100.00
29907;BME280;16776;50.958;10.994;2023-05-08T06:35:56;99197.13;;;10.95;100.00
29907;BME280;16776;50.958;10.994;2023-05-08T06:38:23;99192.56;;;11.11;100.00
29907;BME280;16776;50.958;10.994;2023-05-08T06:40:49;99195.63;;;11.28;100.00
29907;BME280;16776;50.958;10.994;2023-05-08T06:43:19;99189.16;;;11.51;100.00
29907;BME280;16776;50.958;10.994;2023-05-08T06:45:48;99196.56;;;11.66;100.00
29907;BME280;16776;50.958;10.994;2023-05-08T06:48:17;99194.63;;;11.77;100.00
29907;BME280;16776;50.958;10.994;2023-05-08T06:50:45;99199.41;;;11.92;100.00
29907;BME280;16776;50.958;10.994;2023-05-08T06:53:12;99196.56;;;12.03;100.00
29907;BME280;16776;50.958;10.994;2023-05-08T06:55:41;99186.69;;;12.21;100.00
29907;BME280;16776;50.958;10.994;2023-05-08T06:58:08;99198.47;;;12.32;100.00
29907;BME280;16776;50.958;10.994;2023-05-08T07:00:36;99193.88;;;12.43;100.00
29907;BME280;16776;50.958;10.994;2023-05-08T07:03:04;99190.09;;;12.56;100.00
29907;BME280;16776;50.958;10.994;2023-05-08T07:05:31;99189.88;;;12.67;100.00
29907;BME280;16776;50.958;10.994;2023-05-08T07:07:57;99188.69;;;12.78;100.00
29907;BME280;16776;50.958;10.994;2023-05-08T07:10:24;99188.34;;;12.90;100.00
29907;BME280;16776;50.958;10.994;2023-05-08T07:12:50;99193.16;;;13.04;100.00
29907;BME280;16776;50.958;10.994;2023-05-08T07:15:18;99191.81;;;13.20;100.00
29907;BME280;16776;50.958;10.994;2023-05-08T07:17:44;99185.34;;;13.36;100.00
29907;BME280;16776;50.958;10.994;2023-05-08T07:20:12;99188.31;;;13.52;100.00
29907;BME280;16776;50.958;10.994;2023-05-08T07:22:39;99192.41;;;13.61;100.00
29907;BME280;16776;50.958;10.994;2023-05-08T07:25:06;99191.16;;;13.72;99.94
29907;BME280;16776;50.958;10.994;2023-05-08T07:27:33;99184.75;;;13.84;99.83
29907;BME280;16776;50.958;10.994;2023-05-08T07:30:00;99187.03;;;13.95;99.78
29907;BME280;16776;50.958;10.994;2023-05-08T07:32:29;99188.31;;;14.08;99.53
29907;BME280;16776;50.958;10.994;2023-05-08T07:34:56;99189.63;;;14.21;99.60
29907;BME280;16776;50.958;10.994;2023-05-08T07:37:24;99191.75;;;14.35;99.62
29907;BME280;16776;50.958;10.994;2023-05-08T07:39:51;99188.91;;;14.42;99.26
29907;BME280;16776;50.958;10.994;2023-05-08T07:42:17;99191.13;;;14.54;99.26
29907;BME280;16776;50.958;10.994;2023-05-08T07:44:45;99194.25;;;14.64;98.77
29907;BME280;16776;50.958;10.994;2023-05-08T07:47:12;99186.97;;;14.75;99.13
29907;BME280;16776;50.958;10.994;2023-05-08T07:49:44;99187.25;;;14.91;99.18
29907;BME280;16776;50.958;10.994;2023-05-08T07:52:13;99186.13;;;14.98;99.15
29907;BME280;16776;50.958;10.994;2023-05-08T07:54:41;99194.22;;;15.14;99.34
29907;BME280;16776;50.958;10.994;2023-05-08T07:57:14;99185.28;;;15.22;98.31
29907;BME280;16776;50.958;10.994;2023-05-08T07:59:41;99185.81;;;15.30;98.06
29907;BME280;16776;50.958;10.994;2023-05-08T08:02:07;99191.72;;;15.35;98.20
29907;BME280;16776;50.958;10.994;2023-05-08T08:04:35;99179.41;;;15.40;98.03
29907;BME280;16776;50.958;10.994;2023-05-08T08:07:01;99176.59;;;15.47;97.73
29907;BME280;16776;50.958;10.994;2023-05-08T08:09:28;99178.97;;;15.53;98.01
29907;BME280;16776;50.958;10.994;2023-05-08T08:11:57;99177.75;;;15.61;97.78
29907;BME280;16776;50.958;10.994;2023-05-08T08:14:23;99177.41;;;15.70;97.86
29907;BME280;16776;50.958;10.994;2023-05-08T08:16:50;99174.38;;;15.81;98.13
29907;BME280;16776;50.958;10.994;2023-05-08T08:19:17;99178.25;;;15.93;98.32
29907;BME280;16776;50.958;10.994;2023-05-08T08:21:43;99166.38;;;16.07;97.83
29907;BME280;16776;50.958;10.994;2023-05-08T08:24:10;99171.97;;;16.20;97.69
29907;BME280;16776;50.958;10.994;2023-05-08T08:26:39;99176.75;;;16.31;97.82
29907;BME280;16776;50.958;10.994;2023-05-08T08:29:08;99176.06;;;16.46;97.69
29907;BME280;16776;50.958;10.994;2023-05-08T08:31:37;99180.75;;;16.58;97.41
29907;BME280;16776;50.958;10.994;2023-05-08T08:34:07;99179.47;;;16.68;97.37
29907;BME280;16776;50.958;10.994;2023-05-08T08:36:33;99173.78;;;16.79;97.33
29907;BME280;16776;50.958;10.994;2023-05-08T08:39:00;99171.50;;;16.91;96.68
29907;BME280;16776;50.958;10.994;2023-05-08T08:41:26;99172.91;;;17.00;96.73
29907;BME280;16776;50.958;10.994;2023-05-08T08:43:58;99175.88;;;17.11;97.29
29907;BME280;16776;50.958;10.994;2023-05-08T08:46:30;99172.91;;;17.19;96.81
29907;BME280;16776;50.958;10.994;2023-05-08T08:48:58;99169.13;;;17.26;96.63
29907;BME280;16776;50.958;10.994;2023-05-08T08:51:34;99168.50;;;17.39;96.41
29907;BME280;16776;50.958;10.994;2023-05-08T08:54:03;99171.69;;;17.46;96.76
29907;BME280;16776;50.958;10.994;2023-05-08T08:56:31;99161.88;;;17.51;96.10
29907;BME280;16776;50.958;10.994;2023-05-08T08:59:00;99162.50;;;17.56;96.34
29907;BME280;16776;50.958;10.994;2023-05-08T09:01:27;99157.16;;;17.59;95.52
29907;BME280;16776;50.958;10.994;2023-05-08T09:03:57;99156.16;;;17.62;95.05
29907;BME280;16776;50.958;10.994;2023-05-08T09:06:24;99153.00;;;17.55;95.09
29907;BME280;16776;50.958;10.994;2023-05-08T09:08:55;99162.63;;;17.53;94.91
29907;BME280;16776;50.958;10.994;2023-05-08T09:11:22;99166.75;;;17.40;94.85
29907;BME280;16776;50.958;10.994;2023-05-08T09:13:48;99161.09;;;17.30;94.70
29907;BME280;16776;50.958;10.994;2023-05-08T09:16:15;99166.59;;;17.24;94.97
29907;BME280;16776;50.958;10.994;2023-05-08T09:18:42;99162.50;;;17.19;95.42
29907;BME280;16776;50.958;10.994;2023-05-08T09:21:11;99167.72;;;17.19;95.84
29907;BME280;16776;50.958;10.994;2023-05-08T09:23:56;99160.41;;;17.27;95.74
29907;BME280;16776;50.958;10.994;2023-05-08T09:26:27;99157.03;;;17.25;95.91
29907;BME280;16776;50.958;10.994;2023-05-08T09:29:10;99152.22;;;17.34;94.98
29907;BME280;16776;50.958;10.994;2023-05-08T09:31:40;99158.16;;;17.38;95.08
29907;BME280;16776;50.958;10.994;2023-05-08T09:34:07;99159.97;;;17.36;94.61
29907;BME280;16776;50.958;10.994;2023-05-08T09:36:36;99166.47;;;17.46;94.55
29907;BME280;16776;50.958;10.994;2023-05-08T09:39:09;99161.88;;;17.51;94.52
29907;BME280;16776;50.958;10.994;2023-05-08T09:41:37;99164.63;;;17.48;94.07
29907;BME280;16776;50.958;10.994;2023-05-08T09:44:05;99160.19;;;17.50;94.02
29907;BME280;16776;50.958;10.994;2023-05-08T09:46:33;99161.88;;;17.51;93.60
29907;BME280;16776;50.958;10.994;2023-05-08T09:49:01;99157.66;;;17.49;93.86
29907;BME280;16776;50.958;10.994;2023-05-08T09:51:33;99164.78;;;17.45;93.69
29907;BME280;16776;50.958;10.994;2023-05-08T09:54:16;99163.34;;;17.57;93.94
29907;BME280;16776;50.958;10.994;2023-05-08T09:56:43;99161.94;;;17.50;93.75
29907;BME280;16776;50.958;10.994;2023-05-08T09:59:24;99169.13;;;17.63;94.18
29907;BME280;16776;50.958;10.994;2023-05-08T10:01:52;99170.25;;;17.58;93.50
29907;BME280;16776;50.958;10.994;2023-05-08T10:04:32;99176.59;;;17.71;93.91
29907;BME280;16776;50.958;10.994;2023-05-08T10:07:00;99166.56;;;17.62;92.50
29907;BME280;16776;50.958;10.994;2023-05-08T10:09:32;99167.97;;;17.69;92.99
29907;BME280;16776;50.958;10.994;2023-05-08T10:11:59;99161.06;;;17.68;92.11
29907;BME280;16776;50.958;10.994;2023-05-08T10:14:25;99167.13;;;17.68;92.53
29907;BME280;16776;50.958;10.994;2023-05-08T10:16:53;99165.31;;;17.70;91.83
29907;BME280;16776;50.958;10.994;2023-05-08T10:19:21;99157.50;;;17.70;92.43
29907;BME280;16776;50.958;10.994;2023-05-08T10:21:49;99161.66;;;17.74;92.39
29907;BME280;16776;50.958;10.994;2023-05-08T10:24:16;99164.03;;;17.79;92.32
29907;BME280;16776;50.958;10.994;2023-05-08T10:26:51;99164.47;;;17.89;91.70
29907;BME280;16776;50.958;10.994;2023-05-08T10:29:30;99151.72;;;17.83;92.01
29907;BME280;16776;50.958;10.994;2023-05-08T10:31:58;99167.38;;;17.83;91.84
29907;BME280;16776;50.958;10.994;2023-05-08T10:34:30;99166.00;;;17.93;91.51
29907;BME280;16776;50.958;10.994;2023-05-08T10:36:58;99163.56;;;17.90;90.59
29907;BME280;16776;50.958;10.994;2023-05-08T10:39:25;99167.97;;;17.88;90.90
29907;BME280;16776;50.958;10.994;2023-05-08T10:42:00;99168.91;;;17.87;91.10
29907;BME280;16776;50.958;10.994;2023-05-08T10:44:27;99163.06;;;17.82;91.22
29907;BME280;16776;50.958;10.994;2023-05-08T10:46:59;99166.00;;;17.93;91.68
29907;BME280;16776;50.958;10.994;2023-05-08T10:49:29;99158.03;;;17.96;92.79
29907;BME280;16776;50.958;10.994;2023-05-08T10:52:08;99162.34;;;17.97;92.19
29907;BME280;16776;50.958;10.994;2023-05-08T10:54:47;99163.72;;;18.04;91.85
29907;BME280;16776;50.958;10.994;2023-05-08T10:57:18;99146.41;;;18.03;92.13
29907;BME280;16776;50.958;10.994;2023-05-08T10:59:46;99153.84;;;18.10;91.80
29907;BME280;16776;50.958;10.994;2023-05-08T11:02:13;99154.28;;;18.18;90.80
29907;BME280;16776;50.958;10.994;2023-05-08T11:04:41;99165.50;;;18.21;90.68
29907;BME280;16776;50.958;10.994;2023-05-08T11:07:08;99156.34;;;18.12;90.12
29907;BME280;16776;50.958;10.994;2023-05-08T11:09:45;99166.47;;;18.18;90.18
29907;BME280;16776;50.958;10.994;2023-05-08T11:12:19;99163.44;;;18.10;90.08
29907;BME280;16776;50.958;10.994;2023-05-08T11:14:54;99158.53;;;18.04;89.76
29907;BME280;16776;50.958;10.994;2023-05-08T11:17:23;99162.78;;;17.88;90.00
29907;BME280;16776;50.958;10.994;2023-05-08T11:19:57;99153.88;;;17.92;90.14
29907;BME280;16776;50.958;10.994;2023-05-08T11:22:26;99166.44;;;17.84;91.02
29907;BME280;16776;50.958;10.994;2023-05-08T11:25:03;99154.59;;;17.95;90.95
29907;BME280;16776;50.958;10.994;2023-05-08T11:30:38;99157.56;;;18.05;91.64
29907;BME280;16776;50.958;10.994;2023-05-08T11:33:28;99161.44;;;18.15;91.93
29907;BME280;16776;50.958;10.994;2023-05-08T11:35:56;99152.00;;;18.12;91.38
29907;BME280;16776;50.958;10.994;2023-05-08T11:38:28;99152.22;;;18.25;91.57
29907;BME280;16776;50.958;10.994;2023-05-08T11:41:00;99147.41;;;18.35;91.50
29907;BME280;16776;50.958;10.994;2023-05-08T11:43:36;99143.59;;;18.42;91.88
29907;BME280;16776;50.958;10.994;2023-05-08T11:46:16;99149.03;;;18.54;91.67
29907;BME280;16776;50.958;10.994;2023-05-08T11:48:44;99145.34;;;18.58;91.74
29907;BME280;16776;50.958;10.994;2023-05-08T11:51:15;99130.91;;;18.69;91.01
29907;BME280;16776;50.958;10.994;2023-05-08T11:53:45;99133.22;;;18.75;91.01
29907;BME280;16776;50.958;10.994;2023-05-08T11:56:14;99126.59;;;18.85;91.47
29907;BME280;16776;50.958;10.994;2023-05-08T11:58:41;99130.63;;;18.90;91.55
29907;BME280;16776;50.958;10.994;2023-05-08T12:01:09;99131.66;;;19.04;91.95
29907;BME280;16776;50.958;10.994;2023-05-08T12:03:36;99119.78;;;19.14;91.00
29907;BME280;16776;50.958;10.994;2023-05-08T12:06:03;99123.78;;;19.21;90.88
29907;BME280;16776;50.958;10.994;2023-05-08T12:08:29;99132.25;;;19.26;90.54
29907;BME280;16776;50.958;10.994;2023-05-08T12:10:56;99132.06;;;19.29;90.31
29907;BME280;16776;50.958;10.994;2023-05-08T12:13:24;99123.13;;;19.33;90.02
29907;BME280;16776;50.958;10.994;2023-05-08T12:15:53;99122.91;;;19.38;90.18
29907;BME280;16776;50.958;10.994;2023-05-08T12:18:24;99121.72;;;19.43;90.33
29907;BME280;16776;50.958;10.994;2023-05-08T12:20:55;99115.72;;;19.41;89.93
29907;BME280;16776;50.958;10.994;2023-05-08T12:23:23;99118.91;;;19.46;89.95
29907;BME280;16776;50.958;10.994;2023-05-08T12:25:51;99122.47;;;19.45;90.07
29907;BME280;16776;50.958;10.994;2023-05-08T12:28:18;99119.94;;;19.44;88.99
29907;BME280;16776;50.958;10.994;2023-05-08T12:30:45;99119.25;;;19.40;89.20
29907;BME280;16776;50.958;10.994;2023-05-08T12:33:13;99110.00;;;19.34;89.06
29907;BME280;16776;50.958;10.994;2023-05-08T12:35:44;99103.75;;;19.37;89.31
29907;BME280;16776;50.958;10.994;2023-05-08T12:38:11;99107.63;;;19.30;89.34
29907;BME280;16776;50.958;10.994;2023-05-08T12:40:40;99099.53;;;19.34;90.05
29907;BME280;16776;50.958;10.994;2023-05-08T12:43:08;99100.31;;;19.36;90.08
29907;BME280;16776;50.958;10.994;2023-05-08T12:45:36;99098.00;;;19.46;89.89
29907;BME280;16776;50.958;10.994;2023-05-08T12:48:05;99086.66;;;19.47;89.13
29907;BME280;16776;50.958;10.994;2023-05-08T12:50:33;99086.38;;;19.52;89.20
29907;BME280;16776;50.958;10.994;2023-05-08T12:53:02;99088.91;;;19.53;88.79
29907;BME280;16776;50.958;10.994;2023-05-08T12:55:30;99081.34;;;19.49;88.78
29907;BME280;16776;50.958;10.994;2023-05-08T12:57:59;99084.88;;;19.48;88.62
29907;BME280;16776;50.958;10.994;2023-05-08T13:00:33;99079.56;;;19.49;88.09
29907;BME280;16776;50.958;10.994;2023-05-08T13:03:03;99078.66;;;19.34;88.05
29907;BME280;16776;50.958;10.994;2023-05-08T13:05:30;99078.31;;;19.25;87.81
29907;BME280;16776;50.958;10.994;2023-05-08T13:08:02;99067.97;;;19.23;87.98
29907;BME280;16776;50.958;10.994;2023-05-08T13:10:43;99074.41;;;19.16;88.67
29907;BME280;16776;50.958;10.994;2023-05-08T13:13:10;99078.16;;;18.95;87.71